createdAt,value
2022-08-27T00:00:32.284Z,21.57
2022-08-27T00:02:59.204Z,21.07
2022-08-27T00:05:26.044Z,20.33
2022-08-27T00:07:52.713Z,17.77
2022-08-27T00:10:23.221Z,19.70
2022-08-27T00:12:49.879Z,18.07
2022-08-27T00:15:18.044Z,20.80
2022-08-27T00:17:45.963Z,20.60
2022-08-27T00:20:16.582Z,19.07
2022-08-27T00:22:43.303Z,17.40
2022-08-27T00:25:11.305Z,18.30
2022-08-27T00:27:38.419Z,19.30
2022-08-27T00:30:08.643Z,19.20
2022-08-27T00:32:35.399Z,20.10
2022-08-27T00:35:02.244Z,20.03
2022-08-27T00:37:29.026Z,19.60
2022-08-27T00:39:55.771Z,19.03
2022-08-27T00:42:22.734Z,19.00
2022-08-27T00:44:49.753Z,18.60
2022-08-27T00:47:21.959Z,17.80
2022-08-27T00:50:09.302Z,17.73
2022-08-27T00:52:51.053Z,18.20
2022-08-27T00:55:27.474Z,17.53
2022-08-27T00:58:07.522Z,17.97
2022-08-27T01:00:34.673Z,16.93
2022-08-27T01:03:01.498Z,17.40
2022-08-27T01:05:28.562Z,17.30
2022-08-27T01:08:02.077Z,17.30
2022-08-27T01:10:29.792Z,15.70
2022-08-27T01:12:57.059Z,17.23
2022-08-27T01:15:27.825Z,15.37
2022-08-27T01:17:57.480Z,16.97
2022-08-27T01:20:29.458Z,16.17
2022-08-27T01:26:44.084Z,15.87
2022-08-27T01:29:11.712Z,15.10
2022-08-27T01:31:39.231Z,15.87
2022-08-27T01:34:06.669Z,17.50
2022-08-27T01:36:33.769Z,15.10
2022-08-27T01:39:00.875Z,15.87
2022-08-27T01:41:27.546Z,15.80
2022-08-27T01:43:54.410Z,14.60
2022-08-27T01:46:26.560Z,16.90
2022-08-27T01:48:54.090Z,15.57
2022-08-27T01:51:21.286Z,13.60
2022-08-27T01:53:48.780Z,15.30
2022-08-27T01:56:15.619Z,13.93
2022-08-27T01:58:43.399Z,13.77
2022-08-27T02:01:13.084Z,15.07
2022-08-27T02:03:40.812Z,14.27
2022-08-27T02:06:09.915Z,14.07
2022-08-27T02:08:37.325Z,14.93
2022-08-27T02:11:04.727Z,14.70
2022-08-27T02:13:31.537Z,13.97
2022-08-27T02:15:58.246Z,15.03
2022-08-27T02:18:25.021Z,15.27
2022-08-27T02:20:51.790Z,15.00
2022-08-27T02:23:18.737Z,15.00
2022-08-27T02:25:47.215Z,14.77
2022-08-27T02:28:14.239Z,14.03
2022-08-27T02:30:41.589Z,16.13
2022-08-27T02:33:08.360Z,17.23
2022-08-27T02:35:40.582Z,16.93
2022-08-27T02:38:08.109Z,17.30
2022-08-27T02:40:36.080Z,16.53
2022-08-27T02:43:03.103Z,15.63
2022-08-27T02:45:29.990Z,17.00
2022-08-27T02:47:56.690Z,16.50
2022-08-27T02:50:26.912Z,15.40
2022-08-27T02:52:54.730Z,17.20
2022-08-27T02:55:22.393Z,16.67
2022-08-27T02:57:49.073Z,16.07
2022-08-27T03:00:19.254Z,16.70
2022-08-27T03:02:46.007Z,14.63
2022-08-27T03:05:14.417Z,18.80
2022-08-27T03:07:41.855Z,17.23
2022-08-27T03:10:10.918Z,17.47
2022-08-27T03:12:37.820Z,16.03
2022-08-27T03:15:07.022Z,18.30
2022-08-27T03:17:52.173Z,18.20
2022-08-27T03:20:19.059Z,17.97
2022-08-27T03:22:46.118Z,16.57
2022-08-27T03:25:13.343Z,19.10
2022-08-27T03:27:40.758Z,16.70
2022-08-27T03:30:11.721Z,18.93
2022-08-27T03:32:39.785Z,19.00
2022-08-27T03:35:06.938Z,19.07
2022-08-27T03:37:33.777Z,17.80
2022-08-27T03:40:00.652Z,18.27
2022-08-27T03:42:27.573Z,18.70
2022-08-27T03:44:54.206Z,18.97
2022-08-27T03:47:22.491Z,17.53
2022-08-27T03:49:49.594Z,19.77
2022-08-27T03:52:16.953Z,17.87
2022-08-27T03:54:43.607Z,18.73
2022-08-27T03:57:10.989Z,17.87
2022-08-27T03:59:38.035Z,17.80
2022-08-27T04:02:05.491Z,18.47
2022-08-27T04:04:32.423Z,18.47
2022-08-27T04:06:59.767Z,17.57
2022-08-27T04:09:26.993Z,16.83
2022-08-27T04:11:54.728Z,16.57
2022-08-27T04:14:26.284Z,17.03
2022-08-27T04:16:55.893Z,15.83
2022-08-27T04:19:27.243Z,14.57
2022-08-27T04:21:58.025Z,14.97
2022-08-27T04:24:24.977Z,12.70
2022-08-27T04:26:51.652Z,13.13
2022-08-27T04:29:18.281Z,11.87
2022-08-27T04:31:45.320Z,11.33
2022-08-27T04:34:11.990Z,11.77
2022-08-27T04:36:38.654Z,11.20
2022-08-27T04:39:05.289Z,9.90
2022-08-27T04:41:33.468Z,10.50
2022-08-27T04:44:05.194Z,10.20
2022-08-27T04:46:34.938Z,10.43
2022-08-27T04:49:10.521Z,9.37
2022-08-27T04:51:40.011Z,11.10
2022-08-27T04:54:07.221Z,11.80
2022-08-27T04:56:34.955Z,11.00
2022-08-27T04:59:06.686Z,10.23
2022-08-27T05:01:34.293Z,10.73
2022-08-27T05:04:01.124Z,10.20
2022-08-27T05:06:28.804Z,10.47
2022-08-27T05:08:56.127Z,10.73
2022-08-27T05:11:26.232Z,8.93
2022-08-27T05:13:53.066Z,9.10
2022-08-27T05:16:22.735Z,8.40
2022-08-27T05:18:50.914Z,9.40
2022-08-27T05:21:30.399Z,8.33
2022-08-27T05:23:58.809Z,9.47
2022-08-27T05:26:27.282Z,10.10
2022-08-27T05:28:54.724Z,9.50
2022-08-27T05:31:22.770Z,9.93
2022-08-27T05:33:49.907Z,11.57
2022-08-27T05:36:33.090Z,10.07
2022-08-27T05:39:01.403Z,11.50
2022-08-27T05:41:34.073Z,12.00
2022-08-27T05:44:18.570Z,12.67
2022-08-27T05:46:51.695Z,12.90
2022-08-27T05:49:18.425Z,13.00
2022-08-27T05:51:45.141Z,13.17
2022-08-27T05:54:18.689Z,12.80
2022-08-27T05:56:46.466Z,12.67
2022-08-27T05:59:31.858Z,14.47
2022-08-27T06:02:02.181Z,13.43
2022-08-27T06:04:28.830Z,13.23
2022-08-27T06:06:55.538Z,12.80
2022-08-27T06:09:24.820Z,12.97
2022-08-27T06:11:54.187Z,13.60
2022-08-27T06:14:20.983Z,12.33
2022-08-27T06:16:48.593Z,11.83
2022-08-27T06:19:15.996Z,11.50
2022-08-27T06:21:42.919Z,11.47
2022-08-27T06:24:14.471Z,11.20
2022-08-27T06:26:43.637Z,10.60
2022-08-27T06:29:12.009Z,11.57
2022-08-27T06:31:40.446Z,10.27
2022-08-27T06:34:08.987Z,9.53
2022-08-27T06:36:38.971Z,10.40
2022-08-27T06:39:06.858Z,9.43
2022-08-27T06:41:34.806Z,9.43
2022-08-27T06:44:01.689Z,9.00
2022-08-27T06:46:29.347Z,8.87
2022-08-27T06:48:58.498Z,8.27
2022-08-27T06:51:28.513Z,8.30
2022-08-27T06:53:56.971Z,8.37
2022-08-27T06:56:23.867Z,8.07
2022-08-27T06:58:55.909Z,7.87
2022-08-27T07:01:27.893Z,7.50
2022-08-27T07:04:00.163Z,7.00
2022-08-27T07:06:29.299Z,7.60
2022-08-27T07:08:59.318Z,7.27
2022-08-27T07:11:27.447Z,6.63
2022-08-27T07:13:54.662Z,6.60
2022-08-27T07:16:24.279Z,6.40
2022-08-27T07:18:53.352Z,6.97
2022-08-27T07:21:21.352Z,6.40
2022-08-27T07:23:50.180Z,7.30
2022-08-27T07:26:17.874Z,6.10
2022-08-27T07:28:46.538Z,7.30
2022-08-27T07:31:17.069Z,5.00
2022-08-27T07:33:46.272Z,5.97
2022-08-27T07:36:18.909Z,6.20
2022-08-27T07:38:46.270Z,6.40
2022-08-27T07:41:24.867Z,6.33
2022-08-27T07:44:15.959Z,6.37
2022-08-27T07:46:47.623Z,6.03
2022-08-27T07:49:15.394Z,6.07
2022-08-27T07:51:42.051Z,6.00
2022-08-27T07:54:08.946Z,5.90
2022-08-27T07:56:35.615Z,5.90
2022-08-27T07:59:02.362Z,6.30
2022-08-27T08:01:30.020Z,6.50
2022-08-27T08:03:57.135Z,5.87
2022-08-27T08:06:23.874Z,5.03
2022-08-27T08:08:50.695Z,5.50
2022-08-27T08:11:18.385Z,4.83
2022-08-27T08:13:45.789Z,5.53
2022-08-27T08:16:12.798Z,5.20
2022-08-27T08:18:40.689Z,5.30
2022-08-27T08:21:09.865Z,4.60
2022-08-27T08:23:36.717Z,5.30
2022-08-27T08:26:03.667Z,5.00
2022-08-27T08:28:39.798Z,5.20
2022-08-27T08:31:07.715Z,4.53
2022-08-27T08:33:34.831Z,4.63
2022-08-27T08:36:13.470Z,4.63
2022-08-27T08:38:40.761Z,4.30
2022-08-27T08:41:34.707Z,4.90
2022-08-27T08:44:16.653Z,6.00
2022-08-27T08:46:52.909Z,4.70
2022-08-27T08:49:29.999Z,5.17
2022-08-27T08:52:06.244Z,4.33
2022-08-27T08:54:34.629Z,5.23
2022-08-27T08:57:10.301Z,5.20
2022-08-27T08:59:47.512Z,5.00
2022-08-27T09:02:15.651Z,5.17
2022-08-27T09:04:44.323Z,4.20
2022-08-27T09:07:38.598Z,4.43
2022-08-27T09:10:17.479Z,3.47
2022-08-27T09:12:44.295Z,4.60
2022-08-27T09:15:21.836Z,4.43
2022-08-27T09:17:50.228Z,3.70
2022-08-27T09:20:20.726Z,3.63
2022-08-27T09:23:14.365Z,3.80
2022-08-27T09:25:42.923Z,3.93
2022-08-27T09:28:33.166Z,4.10
2022-08-27T09:31:09.054Z,2.90
2022-08-27T09:33:44.607Z,4.13
2022-08-27T09:36:23.864Z,4.33
2022-08-27T09:39:05.050Z,3.20
2022-08-27T09:41:40.885Z,3.43
2022-08-27T09:44:10.418Z,3.60
2022-08-27T09:46:37.284Z,3.47
2022-08-27T09:49:16.454Z,4.00
2022-08-27T09:51:46.316Z,3.70
2022-08-27T09:54:26.324Z,3.73
2022-08-27T09:56:53.093Z,3.10
2022-08-27T09:59:34.381Z,3.60
2022-08-27T10:02:17.873Z,3.43
2022-08-27T10:04:53.956Z,3.30
2022-08-27T10:07:27.813Z,2.90
2022-08-27T10:10:10.690Z,3.50
2022-08-27T10:12:58.965Z,2.97
2022-08-27T10:15:36.452Z,2.70
2022-08-27T10:18:31.864Z,3.20
2022-08-27T10:21:29.860Z,3.30
2022-08-27T10:24:37.717Z,2.77
2022-08-27T10:27:33.764Z,3.77
2022-08-27T10:30:12.532Z,3.53
2022-08-27T10:33:21.449Z,3.03
2022-08-27T10:35:58.086Z,3.17
2022-08-27T10:38:44.457Z,2.83
2022-08-27T10:41:17.421Z,2.80
2022-08-27T10:44:08.826Z,3.27
2022-08-27T10:47:13.229Z,2.33
2022-08-27T10:49:45.699Z,3.00
2022-08-27T10:52:41.886Z,2.87
2022-08-27T10:55:20.085Z,2.80
2022-08-27T10:58:17.632Z,2.33
2022-08-27T11:01:09.063Z,2.87
2022-08-27T11:03:55.021Z,2.30
2022-08-27T11:06:52.528Z,2.90
2022-08-27T11:09:34.951Z,2.80
2022-08-27T11:12:15.077Z,2.40
2022-08-27T11:15:00.320Z,2.30
2022-08-27T11:17:41.787Z,2.63
2022-08-27T11:20:22.629Z,2.17
2022-08-27T11:23:08.389Z,2.30
2022-08-27T11:25:46.597Z,2.07
2022-08-27T11:28:14.492Z,1.80
2022-08-27T11:30:46.254Z,3.20
2022-08-27T11:33:35.301Z,2.73
2022-08-27T11:36:23.171Z,2.10
2022-08-27T11:38:54.028Z,2.70
2022-08-27T11:41:46.627Z,2.57
2022-08-27T11:44:19.368Z,2.30
2022-08-27T11:46:49.213Z,2.43
2022-08-27T11:49:45.975Z,4.07
2022-08-27T11:52:19.947Z,2.20
2022-08-27T11:54:52.934Z,2.30
2022-08-27T11:57:33.074Z,2.60
2022-08-27T12:00:16.956Z,4.70
2022-08-27T12:02:45.074Z,1.90
2022-08-27T12:05:34.707Z,2.60
2022-08-27T12:08:31.976Z,2.60
2022-08-27T12:11:23.173Z,3.43
2022-08-27T12:13:49.764Z,2.50
2022-08-27T12:16:23.813Z,2.80
2022-08-27T12:19:11.285Z,2.23
2022-08-27T12:21:52.589Z,2.57
2022-08-27T12:24:40.570Z,2.40
2022-08-27T12:27:15.572Z,2.30
2022-08-27T12:29:50.677Z,1.97
2022-08-27T12:32:27.929Z,2.43
2022-08-27T12:35:15.253Z,2.67
2022-08-27T12:37:57.836Z,2.90
2022-08-27T12:40:30.678Z,2.20
2022-08-27T12:43:17.372Z,2.10
2022-08-27T12:45:47.901Z,3.43
2022-08-27T12:48:23.048Z,3.70
2022-08-27T12:51:00.646Z,2.63
2022-08-27T12:53:51.491Z,2.73
2022-08-27T12:56:44.082Z,3.33
2022-08-27T12:59:23.807Z,2.40
2022-08-27T13:02:05.395Z,3.33
2022-08-27T13:04:34.167Z,1.87
2022-08-27T13:07:00.943Z,2.27
2022-08-27T13:09:33.325Z,2.77
2022-08-27T13:12:04.314Z,2.40
2022-08-27T13:14:40.171Z,2.40
2022-08-27T13:17:14.495Z,2.60
2022-08-27T13:20:05.072Z,2.50
2022-08-27T13:22:38.713Z,2.70
2022-08-27T13:25:07.706Z,3.00
2022-08-27T13:27:36.699Z,3.87
2022-08-27T13:30:08.498Z,2.97
2022-08-27T13:32:37.282Z,2.93
2022-08-27T13:35:06.490Z,2.80
2022-08-27T13:37:44.792Z,5.30
2022-08-27T13:40:45.727Z,3.83
2022-08-27T13:43:13.727Z,4.70
2022-08-27T13:45:41.721Z,3.43
2022-08-27T13:48:11.575Z,3.43
2022-08-27T13:50:47.038Z,4.40
2022-08-27T13:53:40.197Z,3.20
2022-08-27T13:56:07.859Z,3.73
2022-08-27T13:58:35.434Z,3.53
2022-08-27T14:01:30.036Z,3.57
2022-08-27T14:04:20.353Z,3.40
2022-08-27T14:06:47.956Z,3.43
2022-08-27T14:09:26.054Z,2.70
2022-08-27T14:12:05.425Z,3.03
2022-08-27T14:14:38.307Z,1.97
2022-08-27T14:17:08.906Z,2.77
2022-08-27T14:19:37.183Z,2.73
2022-08-27T14:22:04.187Z,3.80
2022-08-27T14:24:30.812Z,2.80
2022-08-27T14:27:07.914Z,3.20
2022-08-27T14:29:34.574Z,2.93
2022-08-27T14:32:01.409Z,3.73
2022-08-27T14:34:28.505Z,3.67
2022-08-27T14:36:55.221Z,3.67
2022-08-27T14:39:26.524Z,4.03
2022-08-27T14:41:54.514Z,4.87
2022-08-27T14:44:21.839Z,4.30
2022-08-27T14:46:48.831Z,4.70
2022-08-27T14:49:21.837Z,7.00
2022-08-27T14:51:49.060Z,4.47
2022-08-27T14:54:15.743Z,5.70
2022-08-27T14:56:42.513Z,5.80
2022-08-27T14:59:09.285Z,5.50
2022-08-27T15:01:38.130Z,5.37
2022-08-27T15:04:06.315Z,5.23
2022-08-27T15:06:33.512Z,5.17
2022-08-27T15:09:00.737Z,5.00
2022-08-27T15:11:31.516Z,4.50
2022-08-27T15:14:00.625Z,4.83
2022-08-27T15:16:38.127Z,4.60
2022-08-27T15:19:07.226Z,4.70
2022-08-27T15:21:35.986Z,4.87
2022-08-27T15:24:16.937Z,4.60
2022-08-27T15:26:45.229Z,4.60
2022-08-27T15:29:17.133Z,4.20
2022-08-27T15:31:44.981Z,4.37
2022-08-27T15:34:12.337Z,3.70
2022-08-27T15:36:39.700Z,3.80
2022-08-27T15:39:06.941Z,4.50
2022-08-27T15:41:41.789Z,3.53
2022-08-27T15:44:21.530Z,3.50
2022-08-27T15:46:51.250Z,4.20
2022-08-27T15:49:17.920Z,3.93
2022-08-27T15:51:45.035Z,4.90
2022-08-27T15:54:13.211Z,3.37
2022-08-27T15:56:40.026Z,4.10
2022-08-27T15:59:07.230Z,3.60
2022-08-27T16:01:36.579Z,3.83
2022-08-27T16:04:04.617Z,3.40
2022-08-27T16:06:31.407Z,3.63
2022-08-27T16:09:00.136Z,3.63
2022-08-27T16:11:26.895Z,4.20
2022-08-27T16:13:55.474Z,3.70
2022-08-27T16:16:31.998Z,4.40
2022-08-27T16:19:04.142Z,3.10
2022-08-27T16:21:31.545Z,3.33
2022-08-27T16:23:58.346Z,3.77
2022-08-27T16:26:26.144Z,4.20
2022-08-27T16:28:52.826Z,4.47
2022-08-27T16:31:20.156Z,5.27
2022-08-27T16:33:47.047Z,4.03
2022-08-27T16:36:13.861Z,4.83
2022-08-27T16:38:41.109Z,4.10
2022-08-27T16:41:08.277Z,4.30
2022-08-27T16:43:34.942Z,5.03
2022-08-27T16:46:01.983Z,5.00
2022-08-27T16:48:47.762Z,4.60
2022-08-27T16:51:22.842Z,5.67
2022-08-27T16:53:50.802Z,5.30
2022-08-27T16:56:20.596Z,4.93
2022-08-27T16:58:54.193Z,5.13
2022-08-27T17:01:23.221Z,5.60
2022-08-27T17:04:16.366Z,5.03
2022-08-27T17:06:41.284Z,5.10
2022-08-27T17:09:11.724Z,5.07
2022-08-27T17:11:42.601Z,5.53
2022-08-27T17:14:10.815Z,5.07
2022-08-27T17:16:40.347Z,4.10
2022-08-27T17:19:07.093Z,4.73
2022-08-27T17:21:37.008Z,5.30
2022-08-27T17:24:04.845Z,5.50
2022-08-27T17:26:38.041Z,4.33
2022-08-27T17:29:04.735Z,5.00
2022-08-27T17:31:35.560Z,4.43
2022-08-27T17:34:02.944Z,4.83
2022-08-27T17:36:30.781Z,4.20
2022-08-27T17:38:58.228Z,4.70
2022-08-27T17:41:33.609Z,4.83
2022-08-27T17:44:06.464Z,4.77
2022-08-27T17:46:33.173Z,4.87
2022-08-27T17:48:59.877Z,5.47
2022-08-27T17:51:27.828Z,5.33
2022-08-27T17:54:01.470Z,5.40
2022-08-27T17:56:29.652Z,4.80
2022-08-27T17:58:56.532Z,5.53
2022-08-27T18:01:31.447Z,5.90
2022-08-27T18:03:58.668Z,5.13
2022-08-27T18:06:26.935Z,5.97
2022-08-27T18:08:53.774Z,5.90
2022-08-27T18:11:20.494Z,5.30
2022-08-27T18:13:52.542Z,4.83
2022-08-27T18:16:19.852Z,6.10
2022-08-27T18:18:47.001Z,5.30
2022-08-27T18:21:13.891Z,5.50
2022-08-27T18:23:51.715Z,7.30
2022-08-27T18:26:20.415Z,4.60
2022-08-27T18:28:48.125Z,5.03
2022-08-27T18:31:19.760Z,5.33
2022-08-27T18:33:46.579Z,4.93
2022-08-27T18:36:14.823Z,5.10
2022-08-27T18:38:41.457Z,5.20
2022-08-27T18:41:08.992Z,5.50
2022-08-27T18:43:36.182Z,5.17
2022-08-27T18:46:04.464Z,6.23
2022-08-27T18:48:31.319Z,5.53
2022-08-27T18:51:00.052Z,5.13
2022-08-27T18:53:30.726Z,4.97
2022-08-27T18:55:58.160Z,5.10
2022-08-27T18:58:24.964Z,4.93
2022-08-27T19:00:55.674Z,4.60
2022-08-27T19:03:29.910Z,4.77
2022-08-27T19:05:56.853Z,4.53
2022-08-27T19:08:24.517Z,5.07
2022-08-27T19:10:51.590Z,4.37
2022-08-27T19:13:18.464Z,4.57
2022-08-27T19:15:51.506Z,4.70
2022-08-27T19:18:18.617Z,5.03
2022-08-27T19:20:45.271Z,4.07
2022-08-27T19:23:12.057Z,4.40
2022-08-27T19:25:38.861Z,5.83
2022-08-27T19:28:05.938Z,3.80
2022-08-27T19:30:32.708Z,4.37
2022-08-27T19:32:59.392Z,4.30
2022-08-27T19:35:26.164Z,5.27
2022-08-27T19:37:53.541Z,5.30
2022-08-27T19:40:21.938Z,4.60
2022-08-27T19:42:50.670Z,5.60
2022-08-27T19:45:23.712Z,4.47
2022-08-27T19:47:52.307Z,5.10
2022-08-27T19:50:22.445Z,4.70
2022-08-27T19:52:50.023Z,5.10
2022-08-27T19:55:17.006Z,4.03
2022-08-27T19:57:45.065Z,4.67
2022-08-27T20:00:14.779Z,4.37
2022-08-27T20:02:41.517Z,4.50
2022-08-27T20:05:24.103Z,4.33
2022-08-27T20:07:52.433Z,4.83
2022-08-27T20:10:21.584Z,4.90
2022-08-27T20:12:49.241Z,4.37
2022-08-27T20:15:16.454Z,3.83
2022-08-27T20:17:43.972Z,5.30
2022-08-27T20:20:13.245Z,4.53
2022-08-27T20:22:40.031Z,4.47
2022-08-27T20:25:07.875Z,4.20
2022-08-27T20:27:35.529Z,4.40
2022-08-27T20:30:04.607Z,4.90
2022-08-27T20:32:31.465Z,4.60
2022-08-27T20:34:58.117Z,4.80
2022-08-27T20:37:25.044Z,4.53
2022-08-27T20:39:52.411Z,4.00
2022-08-27T20:42:20.125Z,5.63
2022-08-27T20:44:47.252Z,4.77
2022-08-27T20:47:15.403Z,4.90
2022-08-27T20:49:44.580Z,4.97
2022-08-27T20:52:13.130Z,5.33
2022-08-27T20:54:40.519Z,5.30
2022-08-27T20:57:08.629Z,4.60
2022-08-27T20:59:53.999Z,4.67
2022-08-27T21:02:25.301Z,4.23
2022-08-27T21:04:53.259Z,5.20
2022-08-27T21:07:21.324Z,5.10
2022-08-27T21:09:56.516Z,4.47
2022-08-27T21:12:26.032Z,4.90
2022-08-27T21:14:56.164Z,4.33
2022-08-27T21:17:24.545Z,3.70
2022-08-27T21:19:51.665Z,4.23
2022-08-27T21:22:19.543Z,4.77
2022-08-27T21:24:47.446Z,4.60
2022-08-27T21:27:15.455Z,9.17
2022-08-27T21:29:44.537Z,6.40
2022-08-27T21:32:11.832Z,4.70
2022-08-27T21:34:38.749Z,4.87
2022-08-27T21:37:06.477Z,4.97
2022-08-27T21:39:34.228Z,4.47
2022-08-27T21:42:01.550Z,4.73
2022-08-27T21:44:30.792Z,4.47
2022-08-27T21:46:58.607Z,4.60
2022-08-27T21:49:25.287Z,4.80
2022-08-27T21:51:52.050Z,3.77
2022-08-27T21:54:18.737Z,4.40
2022-08-27T21:56:45.770Z,4.20
2022-08-27T21:59:12.516Z,4.03
2022-08-27T22:01:39.558Z,3.93
2022-08-27T22:04:06.357Z,3.73
2022-08-27T22:06:33.154Z,5.10
2022-08-27T22:09:00.074Z,4.23
2022-08-27T22:11:27.351Z,4.37
2022-08-27T22:13:58.235Z,4.50
2022-08-27T22:16:25.044Z,3.57
2022-08-27T22:18:54.766Z,3.90
2022-08-27T22:21:22.722Z,4.37
2022-08-27T22:23:51.332Z,3.27
2022-08-27T22:26:19.346Z,4.03
2022-08-27T22:28:45.975Z,3.70
2022-08-27T22:31:13.009Z,3.50
2022-08-27T22:33:39.817Z,3.77
2022-08-27T22:36:06.659Z,4.23
2022-08-27T22:38:33.453Z,3.60
2022-08-27T22:41:00.193Z,3.00
2022-08-27T22:43:27.934Z,3.00
2022-08-27T22:45:54.619Z,3.97
2022-08-27T22:48:21.297Z,3.80
2022-08-27T22:50:47.926Z,3.20
2022-08-27T22:53:14.712Z,3.97
2022-08-27T22:55:41.376Z,4.30
2022-08-27T22:58:08.091Z,3.80
2022-08-27T23:00:37.661Z,3.40
2022-08-27T23:03:06.744Z,3.73
2022-08-27T23:05:41.846Z,3.30
2022-08-27T23:08:11.334Z,3.20
2022-08-27T23:10:43.504Z,2.97
2022-08-27T23:13:12.045Z,3.30
2022-08-27T23:15:39.265Z,3.10
2022-08-27T23:18:06.612Z,3.17
2022-08-27T23:20:34.167Z,3.40
2022-08-27T23:23:01.306Z,2.70
2022-08-27T23:25:48.658Z,2.93
2022-08-27T23:28:15.775Z,3.80
2022-08-27T23:30:44.192Z,2.80
2022-08-27T23:33:12.640Z,2.87
2022-08-27T23:35:41.116Z,2.60
2022-08-27T23:38:07.776Z,3.10
2022-08-27T23:40:34.735Z,3.60
2022-08-27T23:43:01.731Z,3.70
2022-08-27T23:45:28.423Z,3.37
2022-08-27T23:47:55.051Z,3.10
2022-08-27T23:50:23.164Z,2.80
2022-08-27T23:53:00.513Z,3.40
2022-08-27T23:55:27.700Z,3.33
2022-08-27T23:58:01.386Z,3.10
